Time;durP1;ratioP1;P1;durP2;ratioP2;P2;SDS_P1;SDS_P2;PMS_P1;PMS_P2;Temp;Humidity;BMP_temperature;BMP_pressure;BME280_temperature;BME280_humidity;BME280_pressure;Samples;Min_cycle;Max_cycle;Signal;HPM_P1;HPM_P2
2023/09/01 00:00:41;;;;;;;7.80;3.92;;;16.30;91.40;;;;;;5119482;28;20035;-82
2023/09/01 00:03:08;;;;;;;6.43;3.88;;;16.20;91.30;;;;;;5119405;28;20019;-82
2023/09/01 00:05:34;;;;;;;6.78;3.85;;;16.20;91.40;;;;;;5102509;28;20047;-82
2023/09/01 00:07:59;;;;;;;5.70;3.45;;;16.20;91.40;;;;;;5119565;28;20028;-82
2023/09/01 00:10:25;;;;;;;8.77;3.78;;;16.10;91.50;;;;;;5085680;28;20046;-81
2023/09/01 00:12:51;;;;;;;8.13;3.30;;;16.20;91.40;;;;;;5102344;28;20032;-81
2023/09/01 00:15:17;;;;;;;5.38;3.08;;;16.20;91.40;;;;;;5137245;28;20039;-82
2023/09/01 00:17:43;;;;;;;8.02;3.83;;;16.10;91.30;;;;;;5119295;28;20426;-81
2023/09/01 00:20:09;;;;;;;8.15;3.53;;;16.10;91.30;;;;;;5119161;28;20045;-82
2023/09/01 00:22:35;;;;;;;7.38;3.25;;;16.10;91.50;;;;;;5119020;28;20031;-81
2023/09/01 00:25:01;;;;;;;4.72;3.03;;;15.90;91.60;;;;;;5102386;28;20046;-83
2023/09/01 00:27:26;;;;;;;4.88;3.10;;;16.00;91.70;;;;;;5102205;28;20032;-82
2023/09/01 00:29:52;;;;;;;6.93;3.10;;;16.00;91.80;;;;;;5102137;28;20037;-82
2023/09/01 00:32:17;;;;;;;11.43;3.80;;;16.00;91.70;;;;;;5135846;28;20360;-82
2023/09/01 00:34:43;;;;;;;9.05;3.42;;;16.00;92.00;;;;;;5101541;28;20036;-82
2023/09/01 00:37:09;;;;;;;7.78;3.10;;;16.10;91.60;;;;;;5102331;28;20042;-82
2023/09/01 00:39:34;;;;;;;6.35;3.50;;;16.10;91.60;;;;;;5118858;28;20035;-82
2023/09/01 00:42:00;;;;;;;7.25;3.15;;;16.10;91.60;;;;;;5118876;28;20042;-82
2023/09/01 00:44:25;;;;;;;5.80;3.78;;;16.10;91.60;;;;;;5101704;28;20026;-82
2023/09/01 00:46:51;;;;;;;7.78;3.30;;;16.00;91.60;;;;;;5101789;28;20026;-82
2023/09/01 00:49:18;;;;;;;7.45;3.58;;;16.00;91.80;;;;;;5101889;28;20038;-82
2023/09/01 00:51:46;;;;;;;6.63;3.58;;;16.00;91.90;;;;;;5118685;28;20071;-81
2023/09/01 00:54:14;;;;;;;5.32;3.50;;;16.00;91.90;;;;;;5118725;28;20027;-81
2023/09/01 00:56:40;;;;;;;8.38;3.70;;;16.00;91.80;;;;;;5136722;28;20019;-82
2023/09/01 00:59:06;;;;;;;7.78;3.70;;;16.00;91.80;;;;;;5101537;28;20023;-82
2023/09/01 01:01:32;;;;;;;7.28;3.70;;;16.00;91.80;;;;;;5136357;28;20075;-82
2023/09/01 01:03:59;;;;;;;10.32;3.70;;;16.00;91.80;;;;;;5136282;28;20023;-82
2023/09/01 01:06:34;;;;;;;8.77;3.70;;;15.90;91.80;;;;;;5118584;28;20069;-81
2023/09/01 01:09:10;;;;;;;8.63;3.60;;;16.00;91.80;;;;;;5118338;28;20019;-80
2023/09/01 01:11:53;;;;;;;7.47;3.90;;;15.90;91.80;;;;;;5136359;28;20103;-81
2023/09/01 01:14:25;;;;;;;8.45;4.07;;;15.90;91.80;;;;;;5118026;28;20039;-81
2023/09/01 01:16:52;;;;;;;6.22;3.83;;;15.90;91.90;;;;;;5136147;28;20019;-82
2023/09/01 01:19:55;;;;;;;11.55;4.20;;;15.90;91.90;;;;;;5117988;28;20020;-82
2023/09/01 01:22:49;;;;;;;6.55;3.47;;;15.90;91.90;;;;;;5117943;28;20035;-82
2023/09/01 01:25:15;;;;;;;7.03;3.40;;;15.90;91.80;;;;;;5135972;28;20107;-81
2023/09/01 01:27:42;;;;;;;8.65;3.55;;;15.90;91.80;;;;;;5118028;28;20027;-82
2023/09/01 01:30:09;;;;;;;6.32;3.17;;;15.80;91.90;;;;;;5084576;28;20024;-82
2023/09/01 01:32:35;;;;;;;7.40;3.45;;;15.90;91.90;;;;;;5101139;28;20053;-82
2023/09/01 01:35:19;;;;;;;8.55;4.07;;;15.90;91.90;;;;;;5117738;28;20020;-81
2023/09/01 01:37:58;;;;;;;7.60;3.95;;;15.90;91.90;;;;;;5117600;28;20056;-82
2023/09/01 01:40:28;;;;;;;8.10;3.90;;;15.90;92.00;;;;;;5135657;28;20028;-82
2023/09/01 01:42:56;;;;;;;8.32;4.32;;;15.90;92.20;;;;;;5135193;28;20049;-82
2023/09/01 01:45:24;;;;;;;7.50;4.05;;;15.80;92.30;;;;;;5100583;28;20019;-82
2023/09/01 01:47:51;;;;;;;8.50;4.00;;;15.80;92.40;;;;;;5135483;28;20049;-81
2023/09/01 01:50:17;;;;;;;7.13;4.50;;;15.80;92.50;;;;;;5117154;28;20044;-82
2023/09/01 01:52:43;;;;;;;10.45;4.50;;;15.80;92.50;;;;;;5117264;28;20489;-82
2023/09/01 01:55:09;;;;;;;7.63;4.43;;;15.90;92.60;;;;;;5100250;28;20035;-82
2023/09/01 01:57:36;;;;;;;9.30;4.43;;;15.90;92.60;;;;;;5117134;28;20020;-82
2023/09/01 02:00:11;;;;;;;8.20;4.38;;;15.90;92.60;;;;;;5100442;28;20363;-81
2023/09/01 02:02:38;;;;;;;9.10;4.47;;;16.00;92.60;;;;;;5101570;28;20032;-81
2023/09/01 02:05:06;;;;;;;11.02;4.65;;;16.00;92.60;;;;;;5135075;28;20046;-82
2023/09/01 02:07:32;;;;;;;9.98;5.03;;;16.00;92.60;;;;;;5117423;28;20030;-82
2023/09/01 02:09:58;;;;;;;8.27;4.53;;;16.00;92.50;;;;;;5100287;28;20019;-82
2023/09/01 02:12:24;;;;;;;8.35;4.38;;;15.90;92.60;;;;;;5117194;28;20070;-82
2023/09/01 02:14:49;;;;;;;10.90;4.80;;;15.90;92.50;;;;;;5099948;28;20039;-82
2023/09/01 02:17:15;;;;;;;9.32;4.63;;;15.90;92.60;;;;;;5116958;28;20557;-82
2023/09/01 02:19:41;;;;;;;8.80;4.65;;;15.80;92.80;;;;;;5083344;28;20028;-82
2023/09/01 02:22:06;;;;;;;7.57;4.80;;;15.90;92.90;;;;;;5100119;28;20035;-82
2023/09/01 02:24:32;;;;;;;9.90;4.55;;;15.90;92.90;;;;;;5099998;28;20027;-81
2023/09/01 02:26:58;;;;;;;8.48;4.43;;;15.90;92.80;;;;;;5099921;28;20083;-82
2023/09/01 02:29:24;;;;;;;8.52;4.70;;;15.90;92.80;;;;;;5083178;28;20053;-82
2023/09/01 02:31:53;;;;;;;7.80;4.05;;;15.90;92.80;;;;;;5116972;28;20045;-83
2023/09/01 02:34:18;;;;;;;9.35;4.40;;;15.90;92.90;;;;;;5100678;28;20028;-83
2023/09/01 02:36:44;;;;;;;8.95;4.97;;;15.90;93.00;;;;;;5116799;28;20023;-82
2023/09/01 02:39:10;;;;;;;10.02;4.90;;;16.00;93.00;;;;;;5134771;28;20028;-83
2023/09/01 02:41:36;;;;;;;8.90;5.63;;;15.90;93.00;;;;;;5116978;28;20012;-82
2023/09/01 02:44:01;;;;;;;12.48;5.07;;;15.90;93.00;;;;;;5099655;28;20035;-82
2023/09/01 02:46:27;;;;;;;9.75;4.38;;;16.00;93.00;;;;;;5100209;28;20020;-83
2023/09/01 02:48:53;;;;;;;7.97;4.97;;;16.00;93.00;;;;;;5083027;28;20031;-82
2023/09/01 02:51:18;;;;;;;7.60;4.75;;;16.00;93.00;;;;;;5099608;28;20040;-83
2023/09/01 02:53:44;;;;;;;11.75;4.53;;;15.90;93.00;;;;;;5099602;28;20028;-82
2023/09/01 02:56:09;;;;;;;11.90;5.07;;;16.00;93.10;;;;;;5115783;28;20038;-83
2023/09/01 02:58:36;;;;;;;11.30;4.85;;;16.00;93.10;;;;;;5134476;28;20091;-83
2023/09/01 03:01:09;;;;;;;9.02;5.13;;;16.00;93.10;;;;;;5099937;28;20057;-83
2023/09/01 03:03:35;;;;;;;9.52;4.88;;;16.00;93.10;;;;;;5099795;28;20035;-82
2023/09/01 03:06:03;;;;;;;9.15;5.15;;;16.00;93.20;;;;;;5116294;28;20031;-83
2023/09/01 03:08:28;;;;;;;10.95;5.00;;;16.00;93.20;;;;;;5116660;28;20019;-82
2023/09/01 03:10:54;;;;;;;7.95;5.10;;;16.00;93.10;;;;;;5116302;28;20039;-83
2023/09/01 03:13:20;;;;;;;11.00;5.40;;;16.00;93.20;;;;;;5134115;28;20036;-82
2023/09/01 03:15:45;;;;;;;8.60;4.97;;;15.90;93.30;;;;;;5099443;28;20022;-82
2023/09/01 03:18:11;;;;;;;10.68;5.35;;;15.90;93.50;;;;;;5134152;28;20486;-81
2023/09/01 03:20:43;;;;;;;8.90;5.25;;;15.90;93.50;;;;;;5115809;28;20047;-79
2023/09/01 03:23:08;;;;;;;10.93;5.30;;;16.00;93.50;;;;;;5115921;28;20028;-83
2023/09/01 03:25:34;;;;;;;7.60;4.95;;;16.00;93.60;;;;;;5099091;28;20055;-82
2023/09/01 03:28:00;;;;;;;8.63;5.35;;;16.00;93.50;;;;;;5099095;28;20038;-81
2023/09/01 03:30:25;;;;;;;9.68;5.28;;;16.00;93.50;;;;;;5116064;28;20053;-82
2023/09/01 03:32:52;;;;;;;9.48;5.30;;;15.90;93.50;;;;;;5099275;28;20034;-81
2023/09/01 03:35:17;;;;;;;10.15;5.53;;;15.90;93.60;;;;;;5099126;28;20039;-82
2023/09/01 03:37:43;;;;;;;11.00;5.57;;;15.80;93.70;;;;;;5133821;28;20028;-82
2023/09/01 03:40:09;;;;;;;8.60;4.60;;;15.90;93.90;;;;;;5082193;28;20501;-82
2023/09/01 03:42:36;;;;;;;10.05;5.40;;;15.90;93.90;;;;;;5082246;28;20028;-82
2023/09/01 03:45:02;;;;;;;9.98;4.90;;;16.00;93.80;;;;;;5098856;28;20490;-82
2023/09/01 03:47:28;;;;;;;13.73;5.82;;;15.90;93.80;;;;;;5115816;28;20024;-82
2023/09/01 03:49:53;;;;;;;9.27;5.38;;;15.90;93.90;;;;;;5098660;28;20035;-82
2023/09/01 03:52:19;;;;;;;10.57;5.78;;;15.80;94.00;;;;;;5115877;28;20036;-81
2023/09/01 03:54:45;;;;;;;14.43;5.82;;;15.70;94.10;;;;;;5098972;28;20042;-82
2023/09/01 03:57:11;;;;;;;10.15;5.70;;;15.70;94.60;;;;;;5115815;28;20036;-82
2023/09/01 03:59:36;;;;;;;12.65;5.93;;;15.70;94.30;;;;;;5115706;28;20020;-82
2023/09/01 04:02:04;;;;;;;9.70;6.00;;;15.70;94.30;;;;;;5082345;28;20034;-82
2023/09/01 04:04:29;;;;;;;9.90;5.70;;;15.80;94.40;;;;;;5115685;28;20085;-79
2023/09/01 04:06:55;;;;;;;12.52;6.38;;;15.70;94.40;;;;;;5118148;28;20035;-82
2023/09/01 04:09:21;;;;;;;13.52;6.38;;;15.80;94.50;;;;;;5085788;28;20016;-83
2023/09/01 04:11:46;;;;;;;9.02;6.18;;;15.90;94.60;;;;;;5102433;28;20024;-83
2023/09/01 04:14:12;;;;;;;11.45;6.65;;;15.90;94.50;;;;;;5119415;28;20034;-82
2023/09/01 04:16:38;;;;;;;12.52;6.50;;;15.90;94.40;;;;;;5102183;28;20023;-82
2023/09/01 04:19:04;;;;;;;9.75;5.68;;;15.90;94.40;;;;;;5102372;28;20024;-83
2023/09/01 04:21:30;;;;;;;10.55;6.03;;;15.90;94.30;;;;;;5119204;28;20026;-82
2023/09/01 04:23:55;;;;;;;11.40;6.88;;;15.90;94.40;;;;;;5119156;28;20028;-82
2023/09/01 04:26:21;;;;;;;11.60;6.93;;;15.90;94.50;;;;;;5101942;28;20023;-82
2023/09/01 04:28:47;;;;;;;12.98;6.90;;;15.90;94.60;;;;;;5085649;28;20020;-82
2023/09/01 04:31:16;;;;;;;13.85;6.90;;;15.90;94.70;;;;;;5085505;28;20039;-82
2023/09/01 04:33:41;;;;;;;11.15;6.82;;;15.90;94.70;;;;;;5136908;28;20031;-82
2023/09/01 04:36:07;;;;;;;12.98;6.68;;;15.90;94.70;;;;;;5102141;28;20024;-81
2023/09/01 04:38:33;;;;;;;10.13;6.28;;;16.00;94.60;;;;;;5102039;28;20035;-82
2023/09/01 04:41:00;;;;;;;9.93;6.68;;;15.90;94.60;;;;;;5118922;28;20020;-82
2023/09/01 04:43:26;;;;;;;12.68;6.93;;;15.90;94.60;;;;;;5136778;28;20028;-82
2023/09/01 04:45:53;;;;;;;13.88;7.82;;;15.90;94.60;;;;;;5101747;28;20020;-81
2023/09/01 04:48:19;;;;;;;12.52;7.30;;;15.90;94.60;;;;;;5118769;28;20022;-82
2023/09/01 04:50:45;;;;;;;12.27;7.10;;;15.90;94.60;;;;;;5118463;28;20065;-82
2023/09/01 04:53:10;;;;;;;10.77;7.18;;;15.90;94.60;;;;;;5118699;28;20031;-82
2023/09/01 04:55:36;;;;;;;14.07;7.40;;;15.90;94.70;;;;;;5101603;28;20024;-82
2023/09/01 04:58:02;;;;;;;11.98;7.53;;;15.90;94.60;;;;;;5136593;28;20055;-83
2023/09/01 05:00:28;;;;;;;12.93;7.45;;;16.00;94.70;;;;;;5101414;28;20027;-83
2023/09/01 05:02:53;;;;;;;11.82;7.05;;;15.90;94.70;;;;;;5136351;28;20038;-83
2023/09/01 05:05:19;;;;;;;16.13;7.43;;;15.90;94.70;;;;;;5084818;28;20091;-83
2023/09/01 05:07:44;;;;;;;14.82;7.25;;;15.90;94.70;;;;;;5136339;28;20024;-83
2023/09/01 05:10:10;;;;;;;14.75;7.53;;;15.90;94.80;;;;;;5101416;28;20027;-82
2023/09/01 05:12:36;;;;;;;13.40;6.97;;;15.90;94.80;;;;;;5101375;28;20047;-83
2023/09/01 05:15:03;;;;;;;12.43;7.00;;;15.90;94.80;;;;;;5118475;28;20061;-82
2023/09/01 05:17:29;;;;;;;12.30;6.85;;;15.90;94.80;;;;;;5117866;28;20024;-82
2023/09/01 05:19:57;;;;;;;12.40;6.80;;;15.90;94.80;;;;;;5136299;28;20032;-83
2023/09/01 05:22:22;;;;;;;12.60;6.70;;;15.90;94.80;;;;;;5118044;28;20030;-82
2023/09/01 05:24:49;;;;;;;11.70;6.35;;;15.90;94.80;;;;;;5118222;28;20067;-83
2023/09/01 05:27:18;;;;;;;12.18;6.22;;;15.90;94.90;;;;;;5118189;28;20022;-83
2023/09/01 05:29:44;;;;;;;12.00;6.00;;;15.90;95.00;;;;;;5118657;28;20028;-82
2023/09/01 05:32:10;;;;;;;11.18;5.10;;;15.90;95.00;;;;;;5136197;28;20031;-83
2023/09/01 05:34:35;;;;;;;11.57;5.45;;;15.90;95.00;;;;;;5117861;28;20032;-83
2023/09/01 05:37:01;;;;;;;11.30;5.80;;;15.90;94.90;;;;;;5101046;28;20027;-83
2023/09/01 05:39:27;;;;;;;7.60;5.30;;;15.90;95.00;;;;;;5135623;28;20023;-83
2023/09/01 05:41:53;;;;;;;10.60;6.05;;;15.90;95.00;;;;;;5117767;28;20033;-83
2023/09/01 05:44:20;;;;;;;10.18;5.78;;;15.90;94.90;;;;;;5117911;28;20023;-83
2023/09/01 05:46:45;;;;;;;12.27;6.18;;;15.90;95.00;;;;;;5118163;28;20020;-83
2023/09/01 05:49:11;;;;;;;11.75;5.90;;;15.90;95.00;;;;;;5117923;28;20053;-83
2023/09/01 05:51:37;;;;;;;11.02;5.95;;;15.90;95.00;;;;;;5100409;28;20055;-83
2023/09/01 05:54:02;;;;;;;9.25;5.70;;;15.90;95.10;;;;;;5117310;28;20020;-83
2023/09/01 05:56:28;;;;;;;12.57;5.25;;;15.90;95.10;;;;;;5083523;28;20023;-83
2023/09/01 05:58:54;;;;;;;11.30;5.60;;;15.90;95.20;;;;;;5117426;28;20027;-82
2023/09/01 06:01:19;;;;;;;10.15;6.07;;;15.90;95.20;;;;;;5100202;28;20020;-82
2023/09/01 06:03:45;;;;;;;11.75;5.68;;;15.90;95.20;;;;;;5117202;28;20110;-83
2023/09/01 06:06:11;;;;;;;11.90;5.53;;;15.90;95.30;;;;;;5100255;28;20028;-82
2023/09/01 06:08:36;;;;;;;11.55;5.45;;;15.90;95.30;;;;;;5117374;28;20038;-82
2023/09/01 06:11:12;;;;;;;13.88;5.88;;;15.90;95.30;;;;;;5100327;28;20087;-81
2023/09/01 06:13:37;;;;;;;13.07;6.50;;;16.00;95.40;;;;;;5117363;28;20518;-83
2023/09/01 06:16:04;;;;;;;11.80;5.70;;;16.00;95.30;;;;;;5116937;28;20039;-82
2023/09/01 06:18:29;;;;;;;13.27;6.13;;;16.00;95.30;;;;;;5117009;28;20019;-83
2023/09/01 06:20:55;;;;;;;10.48;5.72;;;16.00;95.30;;;;;;5134915;28;20106;-82
2023/09/01 06:23:21;;;;;;;11.18;5.85;;;16.00;95.50;;;;;;5099960;28;20027;-82
2023/09/01 06:25:46;;;;;;;11.00;6.10;;;16.00;95.50;;;;;;5099822;28;20027;-83
2023/09/01 06:28:12;;;;;;;11.35;5.93;;;16.00;95.60;;;;;;5134831;28;20031;-82
2023/09/01 06:30:40;;;;;;;9.80;5.60;;;16.00;95.70;;;;;;5115840;28;20047;-83
2023/09/01 06:33:08;;;;;;;11.27;6.15;;;16.00;95.80;;;;;;5100059;28;20110;-82
2023/09/01 06:35:33;;;;;;;10.13;6.53;;;16.10;95.80;;;;;;5099934;28;20028;-83
2023/09/01 06:38:00;;;;;;;10.02;5.80;;;16.10;95.90;;;;;;5099576;28;20027;-83
2023/09/01 06:40:26;;;;;;;10.57;6.18;;;16.10;95.90;;;;;;5116611;28;20039;-82
2023/09/01 06:42:52;;;;;;;12.48;5.95;;;16.10;95.90;;;;;;5099604;28;20032;-82
2023/09/01 06:45:17;;;;;;;11.48;5.72;;;16.20;95.90;;;;;;5116347;28;20036;-82
2023/09/01 06:47:43;;;;;;;12.05;6.22;;;16.20;95.80;;;;;;5134502;28;20028;-82
2023/09/01 06:50:09;;;;;;;12.18;5.68;;;16.30;95.90;;;;;;5099342;28;20031;-81
2023/09/01 06:52:35;;;;;;;11.20;5.90;;;16.30;95.90;;;;;;5116549;28;20050;-83
2023/09/01 06:55:00;;;;;;;11.52;5.65;;;16.40;95.90;;;;;;5134444;28;20028;-83
2023/09/01 06:57:26;;;;;;;11.52;5.85;;;16.40;95.90;;;;;;5099429;28;20027;-83
2023/09/01 06:59:51;;;;;;;11.10;6.20;;;16.50;95.90;;;;;;5116289;28;20031;-83
2023/09/01 07:02:17;;;;;;;8.73;5.75;;;16.50;95.90;;;;;;5134263;28;20032;-83
2023/09/01 07:04:43;;;;;;;15.20;5.80;;;16.60;96.00;;;;;;5116596;28;20196;-83
2023/09/01 07:07:08;;;;;;;11.27;5.70;;;16.60;95.90;;;;;;5116421;28;20084;-81
2023/09/01 07:09:34;;;;;;;11.50;6.30;;;16.60;95.90;;;;;;5099422;28;20012;-83
2023/09/01 07:12:02;;;;;;;8.43;5.38;;;16.70;95.90;;;;;;5099368;28;20490;-83
2023/09/01 07:14:28;;;;;;;11.52;5.90;;;16.70;95.80;;;;;;5134278;28;20047;-83
2023/09/01 07:16:53;;;;;;;12.05;5.78;;;16.70;95.80;;;;;;5099499;28;20036;-83
2023/09/01 07:19:19;;;;;;;11.70;6.45;;;16.60;95.80;;;;;;5082557;28;20035;-82
2023/09/01 07:21:45;;;;;;;11.20;5.68;;;16.60;95.90;;;;;;5116131;28;20070;-82
2023/09/01 07:24:11;;;;;;;9.75;5.63;;;16.70;96.00;;;;;;5099328;28;20028;-83
2023/09/01 07:26:37;;;;;;;11.32;6.07;;;16.70;96.00;;;;;;5116222;28;20043;-82
2023/09/01 07:29:03;;;;;;;9.80;5.80;;;16.80;96.00;;;;;;5116347;28;20024;-83
2023/09/01 07:31:29;;;;;;;12.75;6.00;;;16.80;96.00;;;;;;5082385;28;20022;-83
2023/09/01 07:33:54;;;;;;;12.73;6.85;;;16.80;96.10;;;;;;5116084;28;20027;-82
2023/09/01 07:36:21;;;;;;;10.82;6.68;;;16.70;96.20;;;;;;5099161;28;20028;-82
2023/09/01 07:38:47;;;;;;;12.02;6.80;;;16.70;96.30;;;;;;5099623;28;20051;-81
2023/09/01 07:41:13;;;;;;;11.55;6.97;;;16.70;96.40;;;;;;5100460;28;20024;-83
2023/09/01 07:43:39;;;;;;;11.30;6.53;;;16.70;96.50;;;;;;5103247;28;20430;-83
2023/09/01 07:46:05;;;;;;;11.10;7.00;;;16.80;96.50;;;;;;5137968;28;20028;-83
2023/09/01 07:48:30;;;;;;;11.05;6.68;;;16.80;96.50;;;;;;5120061;28;20084;-83
2023/09/01 07:50:56;;;;;;;13.25;6.97;;;16.90;96.60;;;;;;5102510;28;20059;-82
2023/09/01 07:53:22;;;;;;;10.13;6.75;;;16.90;96.50;;;;;;5086250;28;20050;-83
2023/09/01 07:55:47;;;;;;;10.90;6.10;;;16.90;96.60;;;;;;5102956;28;20036;-82
2023/09/01 07:58:13;;;;;;;11.15;6.10;;;16.90;96.60;;;;;;5102818;28;20035;-83
2023/09/01 08:00:40;;;;;;;13.60;6.63;;;16.90;96.70;;;;;;5103044;28;20122;-83
2023/09/01 08:03:10;;;;;;;11.40;6.45;;;16.90;96.80;;;;;;5119417;28;20032;-83
2023/09/01 08:05:37;;;;;;;10.10;5.85;;;16.90;96.80;;;;;;5119535;28;20043;-82
2023/09/01 08:08:03;;;;;;;12.27;6.25;;;17.00;97.20;;;;;;5102740;28;20027;-82
2023/09/01 08:10:29;;;;;;;13.27;6.38;;;17.00;96.90;;;;;;5119767;28;20045;-82
2023/09/01 08:12:54;;;;;;;11.90;5.80;;;17.00;97.00;;;;;;5119367;28;20023;-83
2023/09/01 08:15:20;;;;;;;11.95;6.05;;;16.90;96.90;;;;;;5119350;28;20027;-83
2023/09/01 08:17:46;;;;;;;10.43;6.25;;;17.00;97.00;;;;;;5119262;28;20031;-83
2023/09/01 08:20:11;;;;;;;13.60;6.72;;;17.00;97.10;;;;;;5102428;28;20036;-82
2023/09/01 08:22:37;;;;;;;12.35;6.43;;;17.00;97.10;;;;;;5102224;28;20022;-81
2023/09/01 08:25:03;;;;;;;11.30;6.55;;;17.00;97.00;;;;;;5085564;28;20470;-83
2023/09/01 08:27:29;;;;;;;10.55;6.18;;;17.00;97.10;;;;;;5119086;28;20023;-82
2023/09/01 08:29:56;;;;;;;11.18;6.88;;;17.00;97.10;;;;;;5137215;28;20028;-83
2023/09/01 08:32:21;;;;;;;12.05;6.78;;;17.10;97.30;;;;;;5119286;28;20035;-83
2023/09/01 08:34:47;;;;;;;11.43;5.88;;;17.10;97.30;;;;;;5101779;28;20094;-83
2023/09/01 08:37:15;;;;;;;10.23;5.97;;;17.00;97.40;;;;;;5118861;28;20038;-83
2023/09/01 08:39:42;;;;;;;9.13;5.88;;;17.00;97.40;;;;;;5119461;28;20019;-83
2023/09/01 08:42:09;;;;;;;9.95;5.40;;;17.00;97.40;;;;;;5102287;28;20035;-83
2023/09/01 08:44:37;;;;;;;11.90;6.03;;;17.00;97.40;;;;;;5119492;28;20019;-83
2023/09/01 08:47:03;;;;;;;8.30;5.22;;;17.00;97.90;;;;;;5119842;28;20039;-84
2023/09/01 08:49:29;;;;;;;10.45;5.50;;;17.00;97.60;;;;;;5085403;28;20073;-84
2023/09/01 08:51:56;;;;;;;7.65;5.60;;;17.00;97.50;;;;;;5118615;28;20039;-83
2023/09/01 08:54:23;;;;;;;11.18;5.53;;;17.00;97.50;;;;;;5136125;28;20027;-83
2023/09/01 08:56:50;;;;;;;9.10;5.53;;;17.10;97.60;;;;;;5118888;28;20028;-82
2023/09/01 08:59:15;;;;;;;9.52;5.50;;;17.10;97.60;;;;;;5118494;28;20111;-82
2023/09/01 09:01:41;;;;;;;9.57;5.90;;;17.10;97.60;;;;;;5118340;28;20020;-82
2023/09/01 09:04:07;;;;;;;10.68;5.70;;;17.00;98.10;;;;;;5101792;28;20048;-82
2023/09/01 09:06:35;;;;;;;10.02;5.63;;;17.10;97.80;;;;;;5118780;28;20027;-81
2023/09/01 09:09:15;;;;;;;8.50;5.20;;;17.10;97.70;;;;;;5118375;28;20016;-82
2023/09/01 09:11:55;;;;;;;11.18;6.05;;;17.10;97.80;;;;;;5118800;28;20054;-83
2023/09/01 09:14:21;;;;;;;9.20;5.95;;;17.10;97.80;;;;;;5101891;28;20042;-82
2023/09/01 09:16:54;;;;;;;12.90;6.00;;;17.10;97.90;;;;;;5118625;28;20024;-82
2023/09/01 09:19:21;;;;;;;10.98;6.50;;;17.10;97.90;;;;;;5102248;28;20035;-82
2023/09/01 09:21:47;;;;;;;9.27;6.13;;;17.10;97.90;;;;;;5118004;28;20482;-82
2023/09/01 09:24:13;;;;;;;10.88;6.88;;;17.10;98.10;;;;;;5136454;28;20020;-83
2023/09/01 09:26:38;;;;;;;13.75;7.10;;;17.10;98.10;;;;;;5136345;28;20023;-83
2023/09/01 09:29:11;;;;;;;12.00;6.72;;;17.10;98.50;;;;;;5118342;28;20012;-81
2023/09/01 09:31:39;;;;;;;12.45;6.97;;;17.10;98.30;;;;;;5118394;28;20402;-81
2023/09/01 09:34:15;;;;;;;11.77;6.63;;;17.10;98.40;;;;;;5101123;28;20401;-82
2023/09/01 09:36:41;;;;;;;11.50;6.57;;;17.10;98.40;;;;;;5117586;28;20024;-82
2023/09/01 09:39:22;;;;;;;12.02;6.78;;;17.10;98.40;;;;;;5100888;28;20039;-83
2023/09/01 09:41:49;;;;;;;8.88;5.97;;;17.10;98.40;;;;;;5135466;28;20054;-83
2023/09/01 09:44:33;;;;;;;9.48;5.60;;;17.10;98.30;;;;;;5084106;28;20051;-83
2023/09/01 09:47:09;;;;;;;8.15;5.80;;;17.20;98.20;;;;;;5135413;28;20037;-82
2023/09/01 09:49:39;;;;;;;10.07;6.22;;;17.20;98.70;;;;;;5086120;28;20016;-82
2023/09/01 09:52:09;;;;;;;11.18;7.20;;;17.20;98.30;;;;;;5117567;28;20115;-83
2023/09/01 09:54:37;;;;;;;9.95;5.93;;;17.30;98.40;;;;;;5117656;28;20031;-82
2023/09/01 09:57:09;;;;;;;9.35;6.38;;;17.20;98.40;;;;;;5117352;28;20030;-83
2023/09/01 10:00:06;;;;;;;8.85;5.95;;;17.30;98.40;;;;;;5135499;28;20035;-83
2023/09/01 10:02:40;;;;;;;8.05;5.80;;;17.30;98.40;;;;;;5135092;28;20028;-83
2023/09/01 10:05:08;;;;;;;12.23;6.97;;;17.30;98.50;;;;;;5134926;28;20030;-83
2023/09/01 10:07:34;;;;;;;11.63;6.82;;;17.20;98.60;;;;;;5135036;28;20016;-82
2023/09/01 10:10:00;;;;;;;8.30;5.70;;;17.20;98.50;;;;;;5117404;28;20028;-82
2023/09/01 10:12:27;;;;;;;9.50;6.40;;;17.20;98.60;;;;;;5135077;28;20024;-82
2023/09/01 10:14:54;;;;;;;10.30;6.40;;;17.30;98.60;;;;;;5099971;28;20087;-83
2023/09/01 10:17:22;;;;;;;11.25;6.97;;;17.30;98.60;;;;;;5100146;28;20034;-83
2023/09/01 10:19:48;;;;;;;11.48;6.75;;;17.30;98.50;;;;;;5116792;28;20032;-82
2023/09/01 10:22:17;;;;;;;9.48;6.80;;;17.40;98.60;;;;;;5083309;28;20351;-82
2023/09/01 10:25:15;;;;;;;11.02;6.88;;;17.40;98.60;;;;;;5134820;28;20053;-82
2023/09/01 10:28:01;;;;;;;10.30;6.53;;;17.40;98.50;;;;;;5134938;28;20088;-82
2023/09/01 10:30:27;;;;;;;9.70;6.38;;;17.30;98.70;;;;;;5116708;28;20024;-82
2023/09/01 10:33:08;;;;;;;9.73;6.38;;;17.30;98.70;;;;;;5100060;28;20024;-82
2023/09/01 10:35:40;;;;;;;9.38;6.43;;;17.40;98.70;;;;;;5099850;28;20053;-82
2023/09/01 10:38:11;;;;;;;8.60;6.43;;;17.40;98.80;;;;;;5100206;28;20028;-82
2023/09/01 10:40:41;;;;;;;10.02;6.90;;;17.40;98.70;;;;;;5134758;28;20031;-83
2023/09/01 10:43:07;;;;;;;9.02;6.25;;;17.50;98.60;;;;;;5099851;28;20032;-83
2023/09/01 10:45:32;;;;;;;11.50;6.68;;;17.50;98.60;;;;;;5099585;28;20043;-82
2023/09/01 10:47:58;;;;;;;10.23;6.53;;;17.50;98.60;;;;;;5116599;28;20049;-82
2023/09/01 10:50:23;;;;;;;9.68;6.40;;;17.50;98.60;;;;;;5082801;28;20030;-81
2023/09/01 10:53:28;;;;;;;9.65;6.35;;;17.50;98.60;;;;;;5116434;28;20043;-82
2023/09/01 10:56:10;;;;;;;9.43;6.50;;;17.60;98.70;;;;;;5116545;28;20028;-82
2023/09/01 10:58:49;;;;;;;9.13;6.50;;;17.50;98.70;;;;;;5099443;28;20038;-82
2023/09/01 11:01:35;;;;;;;9.15;6.32;;;17.50;98.80;;;;;;5099970;28;20024;-82
2023/09/01 11:04:13;;;;;;;12.02;6.70;;;17.60;99.00;;;;;;5116290;28;20028;-82
2023/09/01 11:06:58;;;;;;;10.60;7.20;;;17.50;98.90;;;;;;5134291;28;20019;-83
2023/09/01 11:09:44;;;;;;;11.55;6.68;;;17.60;98.80;;;;;;5116145;28;20027;-83
2023/09/01 11:12:11;;;;;;;9.85;6.40;;;17.60;98.90;;;;;;5101705;28;20031;-83
2023/09/01 11:14:39;;;;;;;11.30;7.38;;;17.60;98.90;;;;;;5116206;28;20058;-83
2023/09/01 11:17:05;;;;;;;11.80;7.22;;;17.60;98.90;;;;;;5140052;28;20032;-83
2023/09/01 11:19:32;;;;;;;13.07;7.50;;;17.70;99.00;;;;;;5123100;28;20039;-83
2023/09/01 11:21:59;;;;;;;11.18;7.13;;;17.70;99.10;;;;;;5140916;28;20020;-82
2023/09/01 11:24:24;;;;;;;11.88;7.93;;;17.70;99.00;;;;;;5122857;28;20030;-83
2023/09/01 11:26:51;;;;;;;11.45;7.90;;;17.70;99.10;;;;;;5123123;28;20028;-82
2023/09/01 11:29:21;;;;;;;11.85;7.55;;;17.70;99.10;;;;;;5141027;28;20028;-83
2023/09/01 11:31:47;;;;;;;10.85;7.10;;;17.80;99.60;;;;;;5122685;28;20041;-82
2023/09/01 11:34:13;;;;;;;10.70;6.55;;;17.80;99.20;;;;;;5140732;28;20015;-82
2023/09/01 11:36:50;;;;;;;10.10;6.45;;;17.80;99.30;;;;;;5122715;28;20049;-83
2023/09/01 11:39:16;;;;;;;10.13;6.65;;;17.90;99.50;;;;;;5105983;28;20016;-83
2023/09/01 11:41:42;;;;;;;9.43;6.35;;;17.90;99.70;;;;;;5122750;28;20024;-83
2023/09/01 11:44:08;;;;;;;8.93;5.50;;;17.90;99.60;;;;;;5122496;28;20031;-82
2023/09/01 11:46:36;;;;;;;11.60;7.18;;;17.90;99.50;;;;;;5140839;28;20034;-82
2023/09/01 11:49:02;;;;;;;10.23;6.82;;;17.90;99.60;;;;;;5140703;28;20039;-81
2023/09/01 11:51:32;;;;;;;11.98;7.32;;;17.90;99.50;;;;;;5088995;28;20044;-83
2023/09/01 11:53:58;;;;;;;10.35;6.65;;;18.00;99.50;;;;;;5122580;28;20027;-83
2023/09/01 11:56:24;;;;;;;12.90;7.78;;;18.00;99.40;;;;;;5140617;28;20064;-86
2023/09/01 11:58:51;;;;;;;11.57;7.82;;;18.10;99.40;;;;;;5123166;28;20031;-87
2023/09/01 12:01:19;;;;;;;12.20;7.32;;;18.20;99.40;;;;;;5106105;28;20110;-87
2023/09/01 12:04:02;;;;;;;10.00;7.28;;;18.20;99.30;;;;;;5105717;28;20103;-88
2023/09/01 12:06:28;;;;;;;13.32;8.00;;;18.20;99.30;;;;;;5123127;28;20020;-87
2023/09/01 12:09:17;;;;;;;14.27;8.23;;;18.30;99.20;;;;;;5105840;28;20060;-87
2023/09/01 12:12:00;;;;;;;12.90;8.20;;;18.30;99.30;;;;;;5123216;28;20084;-84
2023/09/01 12:14:27;;;;;;;14.40;9.02;;;18.40;99.40;;;;;;5123050;28;20013;-87
2023/09/01 12:16:53;;;;;;;15.13;9.40;;;18.40;99.40;;;;;;5122918;28;20015;-87
2023/09/01 12:19:24;;;;;;;12.70;8.77;;;18.50;99.30;;;;;;5089330;28;20023;-87
2023/09/01 12:21:50;;;;;;;11.95;7.95;;;18.50;99.20;;;;;;5122321;28;20034;-87
2023/09/01 12:24:16;;;;;;;13.93;8.45;;;18.50;99.10;;;;;;5106213;28;20084;-87
2023/09/01 12:26:42;;;;;;;12.75;7.88;;;18.60;99.00;;;;;;5105555;28;20027;-87
2023/09/01 12:29:07;;;;;;;13.75;8.23;;;18.60;98.90;;;;;;5120165;28;20111;-86
2023/09/01 12:31:35;;;;;;;14.60;8.20;;;18.60;98.80;;;;;;5102778;28;20024;-88
2023/09/01 12:34:00;;;;;;;13.65;8.30;;;18.60;98.80;;;;;;5085874;28;20053;-88
2023/09/01 12:36:26;;;;;;;14.25;8.15;;;18.70;98.80;;;;;;5102884;28;20019;-88
2023/09/01 12:38:52;;;;;;;12.93;8.77;;;18.70;98.80;;;;;;5103475;28;20513;-91
2023/09/01 12:41:18;;;;;;;13.55;8.68;;;18.80;98.80;;;;;;5120685;28;20032;-89
2023/09/01 12:43:43;;;;;;;11.90;7.70;;;18.80;98.70;;;;;;5085937;28;20023;-88